Time;durP1;ratioP1;P1;durP2;ratioP2;P2;SDS_P1;SDS_P2;PMS_P1;PMS_P2;Temp;Humidity;BMP_temperature;BMP_pressure;BME280_temperature;BME280_humidity;BME280_pressure;Samples;Min_cycle;Max_cycle;Signal;HPM_P1;HPM_P2
2021/12/08 20:54:18;;;;;;;49.28;24.75;;;0.80;99.30;;;;;;4924939;28;20966;-63
2021/12/08 20:56:45;;;;;;;45.10;23.73;;;0.80;99.30;;;;;;4974560;28;20035;-63
2021/12/08 20:59:11;;;;;;;46.90;24.52;;;0.90;99.30;;;;;;4974795;28;20075;-63
2021/12/08 21:01:52;;;;;;;48.05;24.65;;;0.90;99.30;;;;;;4984528;28;20078;-62
2021/12/08 21:04:20;;;;;;;46.63;24.40;;;0.90;99.30;;;;;;4980852;28;20023;-63
2021/12/08 21:06:46;;;;;;;49.70;25.55;;;0.90;99.30;;;;;;4988462;28;20030;-63
2021/12/08 21:09:11;;;;;;;55.13;26.15;;;0.90;99.30;;;;;;4979695;28;20030;-63
2021/12/08 21:11:38;;;;;;;53.88;27.75;;;1.00;99.30;;;;;;4993920;28;20485;-63
2021/12/08 21:14:04;;;;;;;54.15;25.98;;;0.90;99.20;;;;;;4974328;28;20107;-63
2021/12/08 21:16:31;;;;;;;52.30;26.92;;;0.90;99.20;;;;;;4983898;28;20210;-65
2021/12/08 21:18:57;;;;;;;56.80;28.75;;;0.90;99.20;;;;;;4974947;28;20309;-68
2021/12/08 21:21:24;;;;;;;61.75;27.83;;;0.90;99.20;;;;;;4974905;28;20586;-68
2021/12/08 21:23:51;;;;;;;56.15;26.33;;;0.90;99.20;;;;;;4981007;28;20034;-68
2021/12/08 21:26:19;;;;;;;57.95;27.75;;;0.90;99.10;;;;;;4981167;28;20103;-69
2021/12/08 21:28:44;;;;;;;59.42;29.65;;;0.90;99.20;;;;;;4988244;28;20041;-69
2021/12/08 21:31:10;;;;;;;59.50;27.65;;;0.90;99.10;;;;;;4994681;28;20034;-69
2021/12/08 21:33:38;;;;;;;58.42;28.95;;;0.90;99.10;;;;;;4982131;28;95083;-69
2021/12/08 21:36:04;;;;;;;61.97;30.05;;;0.80;99.10;;;;;;4990412;28;20581;-69
2021/12/08 21:38:29;;;;;;;61.53;29.67;;;0.90;99.20;;;;;;4979182;28;20045;-69
2021/12/08 21:41:15;;;;;;;61.65;28.48;;;0.90;99.20;;;;;;4986457;28;20190;-69
2021/12/08 21:43:44;;;;;;;70.70;30.08;;;0.80;99.20;;;;;;4980647;28;20058;-70
2021/12/08 21:46:09;;;;;;;59.10;28.52;;;0.80;99.20;;;;;;4987684;28;20048;-69
2021/12/08 21:48:36;;;;;;;66.85;30.33;;;0.80;99.20;;;;;;4985778;28;20054;-69
2021/12/08 21:51:07;;;;;;;65.70;29.83;;;0.80;99.20;;;;;;4980193;28;20089;-69
2021/12/08 21:53:34;;;;;;;67.32;30.55;;;0.80;99.30;;;;;;4979445;28;20223;-69
2021/12/08 21:55:59;;;;;;;63.75;29.58;;;0.80;99.20;;;;;;4970709;28;20365;-69
2021/12/08 21:58:25;;;;;;;67.20;29.95;;;0.80;99.20;;;;;;4972757;28;20080;-69
2021/12/08 22:00:52;;;;;;;76.57;30.92;;;0.80;99.20;;;;;;4985747;28;20023;-69
2021/12/08 22:03:21;;;;;;;72.70;31.95;;;0.90;99.30;;;;;;4989952;28;20034;-68
2021/12/08 22:05:46;;;;;;;71.95;30.92;;;0.80;99.20;;;;;;4966178;28;20108;-69
2021/12/08 22:08:14;;;;;;;59.58;29.52;;;0.90;99.30;;;;;;4969094;28;20274;-69
2021/12/08 22:10:41;;;;;;;66.63;30.25;;;0.90;99.30;;;;;;4975310;28;20118;-69
2021/12/08 22:13:09;;;;;;;63.38;29.85;;;0.90;99.30;;;;;;4965015;28;20033;-69
2021/12/08 22:15:41;;;;;;;67.75;30.10;;;1.00;99.30;;;;;;4973008;28;20442;-69
2021/12/08 22:18:07;;;;;;;60.45;28.70;;;1.00;99.20;;;;;;4974067;28;20043;-69
2021/12/08 22:20:32;;;;;;;65.60;30.55;;;1.00;99.20;;;;;;4965558;28;20101;-69
2021/12/08 22:22:58;;;;;;;62.60;29.30;;;1.00;99.20;;;;;;4962038;28;20062;-69
2021/12/08 22:25:23;;;;;;;62.00;29.75;;;1.00;99.20;;;;;;4975328;28;20026;-68
2021/12/08 22:27:49;;;;;;;68.10;30.70;;;1.00;99.20;;;;;;4971786;28;20026;-69
2021/12/08 22:30:17;;;;;;;62.20;28.90;;;1.00;99.20;;;;;;4961626;28;20023;-69
2021/12/08 22:32:43;;;;;;;62.38;29.95;;;1.00;99.20;;;;;;4948080;28;20031;-69
2021/12/08 22:35:10;;;;;;;64.40;30.52;;;1.00;99.20;;;;;;4966916;28;20466;-69
2021/12/08 22:37:36;;;;;;;63.22;28.73;;;1.00;99.20;;;;;;4973935;28;20031;-69
2021/12/08 22:40:05;;;;;;;67.55;30.33;;;1.00;99.20;;;;;;4959393;28;20457;-69
2021/12/08 22:42:31;;;;;;;65.15;28.73;;;1.00;99.20;;;;;;4965517;28;20326;-69
2021/12/08 22:44:56;;;;;;;70.03;30.20;;;1.00;99.20;;;;;;4995194;28;20026;-69
2021/12/08 22:47:22;;;;;;;66.82;30.70;;;1.00;99.20;;;;;;4975589;28;20446;-69
2021/12/08 22:49:49;;;;;;;68.65;29.85;;;1.10;99.20;;;;;;4974773;28;20446;-69
2021/12/08 22:52:17;;;;;;;64.13;29.55;;;1.10;99.20;;;;;;4969564;28;20037;-69
2021/12/08 22:54:43;;;;;;;64.25;29.33;;;1.10;99.20;;;;;;4973841;28;20014;-69
2021/12/08 22:57:09;;;;;;;61.08;29.13;;;1.10;99.20;;;;;;4966788;28;20470;-69
2021/12/08 22:59:35;;;;;;;60.53;28.20;;;1.10;99.20;;;;;;4973032;28;20109;-69
2021/12/08 23:02:00;;;;;;;63.95;29.60;;;1.10;99.20;;;;;;4965263;28;20176;-69
2021/12/08 23:04:26;;;;;;;61.90;30.02;;;1.10;99.20;;;;;;4985165;28;20026;-69
2021/12/08 23:06:53;;;;;;;62.15;29.15;;;1.10;99.20;;;;;;4952753;28;20042;-69
2021/12/08 23:09:19;;;;;;;70.55;30.17;;;1.10;99.20;;;;;;4963308;28;20117;-68
2021/12/08 23:11:47;;;;;;;64.82;29.05;;;1.10;99.10;;;;;;4961031;28;20437;-69
2021/12/08 23:14:16;;;;;;;62.80;28.23;;;1.10;99.10;;;;;;4964645;28;20451;-69
2021/12/08 23:16:43;;;;;;;64.97;29.77;;;1.10;99.10;;;;;;4966016;28;20027;-68
2021/12/08 23:19:09;;;;;;;61.35;28.73;;;1.20;99.10;;;;;;4957079;28;20042;-69
2021/12/08 23:21:36;;;;;;;60.33;28.38;;;1.10;99.10;;;;;;4954183;28;20557;-69
2021/12/08 23:24:04;;;;;;;67.03;29.42;;;1.10;99.10;;;;;;4963044;28;20158;-69
2021/12/08 23:26:31;;;;;;;61.85;29.38;;;1.20;99.10;;;;;;4971439;28;20524;-69
2021/12/08 23:28:59;;;;;;;65.88;29.85;;;1.20;99.10;;;;;;4966281;28;20566;-69
2021/12/08 23:31:27;;;;;;;63.03;28.90;;;1.20;99.10;;;;;;4965691;28;20485;-69
2021/12/08 23:33:55;;;;;;;59.95;29.10;;;1.20;99.10;;;;;;4975060;28;20039;-69
2021/12/08 23:36:24;;;;;;;56.90;27.52;;;1.20;99.10;;;;;;4973949;28;20049;-69
2021/12/08 23:38:58;;;;;;;59.88;28.05;;;1.20;99.10;;;;;;4964631;28;20026;-68
2021/12/08 23:41:25;;;;;;;61.20;27.92;;;1.30;99.10;;;;;;4963115;28;20030;-69
2021/12/08 23:43:53;;;;;;;58.65;29.42;;;1.30;99.10;;;;;;4984687;28;20053;-69
2021/12/08 23:46:19;;;;;;;65.10;29.45;;;1.20;99.10;;;;;;4962067;28;20386;-69
2021/12/08 23:48:46;;;;;;;59.38;28.52;;;1.30;99.10;;;;;;4961730;28;20169;-69
2021/12/08 23:51:12;;;;;;;62.53;29.45;;;1.30;99.10;;;;;;4977083;28;20154;-68
2021/12/08 23:53:39;;;;;;;60.45;28.00;;;1.30;99.10;;;;;;4970824;28;20761;-69
2021/12/08 23:56:06;;;;;;;64.55;28.02;;;1.30;99.10;;;;;;4963891;28;20187;-69
2021/12/08 23:58:48;;;;;;;64.25;29.10;;;1.30;99.10;;;;;;4964654;28;20043;-69
